Time;durP1;ratioP1;P1;durP2;ratioP2;P2;SDS_P1;SDS_P2;PMS_P1;PMS_P2;Temp;Humidity;BMP_temperature;BMP_pressure;BME280_temperature;BME280_humidity;BME280_pressure;Samples;Min_cycle;Max_cycle;Signal;HPM_P1;HPM_P2
2022/11/02 00:00:12;;;;;;;64.57;23.77;;;;;;;;;;4904727;29;20272;-39
2022/11/02 00:02:59;;;;;;;68.47;24.95;;;;;;;;;;4921216;29;20218;-39
2022/11/02 00:05:27;;;;;;;72.63;25.83;;;;;;;;;;4921030;29;20645;-39
2022/11/02 00:07:54;;;;;;;74.72;24.92;;;;;;;;;;4920919;29;20208;-38
2022/11/02 00:10:22;;;;;;;63.95;23.30;;;;;;;;;;4920692;29;20244;-39
2022/11/02 00:12:50;;;;;;;64.80;23.05;;;;;;;;;;4920509;29;20644;-39
2022/11/02 00:15:17;;;;;;;68.22;23.50;;;;;;;;;;4920741;29;20228;-38
2022/11/02 00:17:46;;;;;;;69.13;23.33;;;;;;;;;;4920569;29;20232;-39
2022/11/02 00:20:16;;;;;;;66.85;22.38;;;;;;;;;;4920771;29;20220;-42
2022/11/02 00:22:43;;;;;;;67.60;23.27;;;;;;;;;;4904288;29;20205;-39
2022/11/02 00:25:11;;;;;;;54.35;21.40;;;;;;;;;;4903953;29;20236;-39
2022/11/02 00:27:39;;;;;;;60.15;21.48;;;;;;;;;;4920344;29;20225;-39
2022/11/02 00:30:07;;;;;;;63.22;22.23;;;;;;;;;;4920587;29;20291;-39
2022/11/02 00:32:34;;;;;;;62.05;22.80;;;;;;;;;;4904190;29;20268;-40
2022/11/02 00:35:01;;;;;;;64.70;21.95;;;;;;;;;;4904073;29;20280;-38
2022/11/02 00:37:28;;;;;;;74.47;25.88;;;;;;;;;;4920362;29;20237;-39
2022/11/02 00:39:55;;;;;;;68.45;24.30;;;;;;;;;;4920246;29;20208;-38
2022/11/02 00:42:23;;;;;;;67.95;23.38;;;;;;;;;;4919977;29;20212;-38
2022/11/02 00:44:50;;;;;;;69.50;22.35;;;;;;;;;;4920177;29;20200;-39
2022/11/02 00:47:18;;;;;;;76.75;23.98;;;;;;;;;;4903642;29;20220;-38
2022/11/02 00:49:45;;;;;;;68.03;22.00;;;;;;;;;;4920183;29;20211;-39
2022/11/02 00:52:13;;;;;;;74.20;22.92;;;;;;;;;;4919881;29;20659;-38
2022/11/02 00:54:45;;;;;;;76.15;23.10;;;;;;;;;;4904141;29;20220;-39
2022/11/02 00:57:12;;;;;;;70.45;22.63;;;;;;;;;;4919964;29;20229;-38
2022/11/02 00:59:40;;;;;;;78.65;24.60;;;;;;;;;;4903304;29;20205;-39
2022/11/02 01:02:07;;;;;;;83.22;24.10;;;;;;;;;;4903015;29;20533;-39
2022/11/02 01:04:34;;;;;;;79.30;24.00;;;;;;;;;;4919755;29;20588;-39
2022/11/02 01:07:02;;;;;;;84.25;25.65;;;;;;;;;;4919641;29;20212;-39
2022/11/02 01:09:29;;;;;;;81.65;25.33;;;;;;;;;;4903311;29;20213;-40
2022/11/02 01:11:56;;;;;;;97.43;24.92;;;;;;;;;;4919842;29;20213;-39
2022/11/02 01:14:23;;;;;;;92.43;24.52;;;;;;;;;;4919429;29;20236;-39
2022/11/02 01:16:50;;;;;;;132.23;26.88;;;;;;;;;;4919264;29;20242;-39
2022/11/02 01:19:17;;;;;;;117.75;28.15;;;;;;;;;;4903147;29;20204;-40
2022/11/02 01:21:45;;;;;;;108.53;27.88;;;;;;;;;;4919679;29;20209;-40
2022/11/02 01:24:11;;;;;;;118.78;26.30;;;;;;;;;;4919637;29;20275;-39
2022/11/02 01:26:38;;;;;;;166.48;29.58;;;;;;;;;;4919525;29;20279;-39
2022/11/02 01:29:05;;;;;;;120.28;27.35;;;;;;;;;;4902829;29;20209;-39
2022/11/02 01:31:32;;;;;;;106.95;25.67;;;;;;;;;;4919531;29;20193;-40
2022/11/02 01:34:02;;;;;;;133.02;26.63;;;;;;;;;;4919419;29;20224;-39
2022/11/02 01:36:29;;;;;;;168.43;27.92;;;;;;;;;;4919407;29;20212;-39
2022/11/02 01:38:56;;;;;;;146.23;29.15;;;;;;;;;;4919429;29;20241;-39
2022/11/02 01:41:23;;;;;;;125.47;28.83;;;;;;;;;;4919361;29;20209;-39
2022/11/02 01:43:54;;;;;;;132.57;29.52;;;;;;;;;;4919296;29;20288;-38
2022/11/02 01:46:24;;;;;;;139.48;30.45;;;;;;;;;;4919409;29;20205;-39
2022/11/02 01:48:59;;;;;;;161.93;31.92;;;;;;;;;;4887086;29;20542;-40
2022/11/02 01:51:59;;;;;;;155.40;29.98;;;;;;;;;;4902790;29;20247;-39
2022/11/02 01:54:29;;;;;;;151.98;29.45;;;;;;;;;;4918552;29;20240;-39
2022/11/02 01:57:06;;;;;;;147.10;30.45;;;;;;;;;;4902972;29;20212;-41
2022/11/02 01:59:37;;;;;;;157.57;31.85;;;;;;;;;;4902704;29;20208;-39
2022/11/02 02:02:07;;;;;;;140.27;30.90;;;;;;;;;;4887200;29;20213;-39
2022/11/02 02:04:35;;;;;;;237.00;32.55;;;;;;;;;;4903511;29;20196;-40
2022/11/02 02:07:03;;;;;;;194.68;32.17;;;;;;;;;;4918632;29;20224;-39
2022/11/02 02:09:30;;;;;;;177.93;36.00;;;;;;;;;;4902287;29;20224;-38
2022/11/02 02:11:58;;;;;;;335.48;37.65;;;;;;;;;;4902657;29;20204;-39
2022/11/02 02:14:25;;;;;;;227.35;36.45;;;;;;;;;;4902009;29;20262;-40
2022/11/02 02:17:14;;;;;;;172.15;33.95;;;;;;;;;;4902254;29;20242;-39
2022/11/02 02:19:57;;;;;;;212.23;35.35;;;;;;;;;;4918493;29;20667;-39
2022/11/02 02:22:52;;;;;;;225.10;37.38;;;;;;;;;;4902036;29;20213;-40
2022/11/02 02:25:37;;;;;;;221.60;38.20;;;;;;;;;;4902256;29;20562;-39
2022/11/02 02:28:18;;;;;;;219.77;37.95;;;;;;;;;;4886241;29;20723;-39
2022/11/02 02:30:53;;;;;;;211.07;38.65;;;;;;;;;;4886986;29;20185;-39
2022/11/02 02:33:38;;;;;;;210.10;38.92;;;;;;;;;;4886771;29;20219;-38
2022/11/02 02:36:35;;;;;;;239.98;37.50;;;;;;;;;;4918473;29;20209;-40
2022/11/02 02:39:11;;;;;;;219.35;38.55;;;;;;;;;;4863615;29;20238;-39
2022/11/02 02:41:43;;;;;;;232.27;39.78;;;;;;;;;;4864274;29;20217;-39
2022/11/02 02:44:16;;;;;;;215.25;40.25;;;;;;;;;;4863692;29;20611;-40
2022/11/02 02:46:46;;;;;;;244.52;40.15;;;;;;;;;;4864008;29;20198;-39
2022/11/02 02:49:22;;;;;;;253.60;38.47;;;;;;;;;;4863937;29;20225;-39
2022/11/02 02:51:50;;;;;;;240.05;38.95;;;;;;;;;;4879250;29;20210;-39
2022/11/02 02:54:25;;;;;;;253.40;41.88;;;;;;;;;;4848717;29;20262;-39
2022/11/02 02:56:54;;;;;;;296.70;39.25;;;;;;;;;;4863812;29;20663;-39
2022/11/02 02:59:25;;;;;;;246.63;39.47;;;;;;;;;;4863615;29;20237;-39
2022/11/02 03:01:53;;;;;;;176.77;34.80;;;;;;;;;;4863616;29;20209;-40
2022/11/02 03:04:20;;;;;;;202.20;34.88;;;;;;;;;;4880697;29;20210;-40
2022/11/02 03:06:50;;;;;;;203.82;34.45;;;;;;;;;;4882740;29;20269;-39
2022/11/02 03:09:17;;;;;;;180.60;33.42;;;;;;;;;;4867184;29;20582;-39
2022/11/02 03:11:50;;;;;;;168.07;31.63;;;;;;;;;;4867138;29;20629;-42
2022/11/02 03:14:37;;;;;;;164.85;34.15;;;;;;;;;;4866995;29;20241;-39
2022/11/02 03:17:17;;;;;;;166.23;32.90;;;;;;;;;;4920817;29;20247;-40
2022/11/02 03:20:22;;;;;;;167.18;32.53;;;;;;;;;;4890324;29;20204;-39
2022/11/02 03:23:08;;;;;;;154.48;32.28;;;;;;;;;;4905270;29;20204;-39
2022/11/02 03:26:06;;;;;;;172.50;33.42;;;;;;;;;;4905016;29;20212;-40
2022/11/02 03:28:59;;;;;;;218.85;33.10;;;;;;;;;;4890453;29;20208;-39
2022/11/02 03:31:44;;;;;;;166.13;33.50;;;;;;;;;;4905149;29;20220;-39
2022/11/02 03:34:12;;;;;;;180.60;32.15;;;;;;;;;;4905440;29;20248;-39
2022/11/02 03:37:19;;;;;;;163.23;33.25;;;;;;;;;;4921576;29;20205;-39
2022/11/02 03:39:49;;;;;;;187.45;33.10;;;;;;;;;;4899442;29;20220;-39
2022/11/02 03:42:20;;;;;;;177.70;33.72;;;;;;;;;;4889661;29;20208;-39
2022/11/02 03:44:54;;;;;;;181.50;33.47;;;;;;;;;;4889598;29;20208;-39
2022/11/02 03:47:22;;;;;;;281.17;36.63;;;;;;;;;;4905011;29;20208;-39
2022/11/02 03:49:51;;;;;;;158.35;33.83;;;;;;;;;;4904584;29;20205;-39
2022/11/02 03:52:24;;;;;;;203.38;39.75;;;;;;;;;;4889602;29;20288;-39
2022/11/02 03:55:07;;;;;;;306.38;44.30;;;;;;;;;;4889354;29;20220;-39
2022/11/02 03:57:48;;;;;;;258.88;43.88;;;;;;;;;;4889065;29;20200;-39
2022/11/02 04:00:20;;;;;;;249.05;43.85;;;;;;;;;;4889296;29;20199;-39
2022/11/02 04:02:57;;;;;;;245.65;47.85;;;;;;;;;;4904428;29;20201;-40
2022/11/02 04:05:28;;;;;;;319.30;49.03;;;;;;;;;;4889437;29;20530;-40
2022/11/02 04:16:15;;;;;;;213.40;42.10;;;;;;;;;;4919590;29;20627;-39
2022/11/02 04:21:29;;;;;;;200.10;42.88;;;;;;;;;;4904354;29;20216;-39
2022/11/02 04:26:45;;;;;;;192.45;42.15;;;;;;;;;;4903962;29;20644;-40
2022/11/02 04:29:12;;;;;;;178.80;41.20;;;;;;;;;;4904139;29;20228;-39
2022/11/02 04:31:39;;;;;;;161.02;40.50;;;;;;;;;;4904378;29;20217;-39
2022/11/02 04:34:07;;;;;;;153.38;39.45;;;;;;;;;;4904158;29;20201;-39
2022/11/02 04:36:34;;;;;;;164.75;41.30;;;;;;;;;;4920257;29;20644;-40
2022/11/02 04:39:02;;;;;;;145.00;40.45;;;;;;;;;;4903897;29;20240;-38
2022/11/02 04:41:40;;;;;;;149.98;39.25;;;;;;;;;;4903664;29;20229;-40
2022/11/02 04:44:28;;;;;;;153.07;42.15;;;;;;;;;;4919806;29;20211;-39
2022/11/02 04:47:15;;;;;;;143.15;38.53;;;;;;;;;;4919967;29;20287;-41
2022/11/02 04:49:43;;;;;;;132.00;37.95;;;;;;;;;;4905824;29;20271;-41
2022/11/02 04:52:14;;;;;;;130.85;38.38;;;;;;;;;;4915750;29;20220;-40
2022/11/02 04:54:47;;;;;;;126.88;38.28;;;;;;;;;;4906907;29;20205;-40
2022/11/02 04:57:14;;;;;;;114.15;37.20;;;;;;;;;;4902807;29;20332;-39
2022/11/02 04:59:42;;;;;;;129.55;37.85;;;;;;;;;;4912270;29;20244;-39
2022/11/02 05:02:09;;;;;;;129.40;38.53;;;;;;;;;;4902414;29;20224;-39
2022/11/02 05:04:37;;;;;;;128.95;39.45;;;;;;;;;;4918853;29;20232;-38
2022/11/02 05:07:06;;;;;;;125.18;38.67;;;;;;;;;;4904437;29;20394;-40
2022/11/02 05:09:35;;;;;;;113.35;37.05;;;;;;;;;;4901603;29;20233;-40
2022/11/02 05:12:04;;;;;;;110.20;36.22;;;;;;;;;;4901947;29;20703;-39
2022/11/02 05:14:32;;;;;;;110.40;35.90;;;;;;;;;;4898884;29;20677;-39
2022/11/02 05:17:00;;;;;;;113.93;36.78;;;;;;;;;;4898932;29;20320;-40
2022/11/02 05:19:27;;;;;;;104.32;35.83;;;;;;;;;;4899197;29;20256;-39
2022/11/02 05:21:54;;;;;;;105.65;35.90;;;;;;;;;;4899405;29;20237;-39
2022/11/02 05:24:23;;;;;;;109.72;36.10;;;;;;;;;;4898497;29;20237;-41
2022/11/02 05:26:50;;;;;;;102.30;34.78;;;;;;;;;;4898372;29;20235;-40
2022/11/02 05:29:22;;;;;;;99.63;35.13;;;;;;;;;;4899096;29;20217;-43
2022/11/02 05:31:51;;;;;;;101.25;35.08;;;;;;;;;;4898584;29;20252;-39
2022/11/02 05:34:18;;;;;;;99.43;37.88;;;;;;;;;;4898806;29;20236;-39
2022/11/02 05:36:47;;;;;;;111.45;38.47;;;;;;;;;;4898246;29;20229;-39
2022/11/02 05:39:14;;;;;;;102.75;36.65;;;;;;;;;;4898218;29;20252;-39
2022/11/02 05:41:41;;;;;;;99.43;32.97;;;;;;;;;;4881900;29;20277;-41
2022/11/02 05:44:09;;;;;;;91.90;33.00;;;;;;;;;;4880230;29;20681;-40
2022/11/02 05:46:38;;;;;;;98.57;33.40;;;;;;;;;;4878389;29;20238;-39
2022/11/02 05:49:05;;;;;;;89.53;32.92;;;;;;;;;;4879108;29;20226;-41
2022/11/02 05:51:32;;;;;;;98.35;33.28;;;;;;;;;;4880289;29;20736;-40
2022/11/02 05:53:59;;;;;;;92.07;32.83;;;;;;;;;;4879366;29;20234;-39
2022/11/02 05:56:26;;;;;;;88.13;34.42;;;;;;;;;;4878809;29;20278;-39
2022/11/02 05:58:54;;;;;;;95.90;35.30;;;;;;;;;;4879114;29;20242;-39
2022/11/02 06:01:21;;;;;;;88.90;32.90;;;;;;;;;;4880043;29;20222;-40
2022/11/02 06:03:48;;;;;;;92.13;33.72;;;;;;;;;;4879800;29;20233;-42
2022/11/02 06:06:19;;;;;;;96.40;33.90;;;;;;;;;;4880240;29;20225;-42
2022/11/02 06:08:46;;;;;;;87.40;33.88;;;;;;;;;;4879642;29;20238;-39
2022/11/02 06:11:13;;;;;;;92.53;33.33;;;;;;;;;;4893801;29;20243;-40
2022/11/02 06:13:41;;;;;;;96.03;34.53;;;;;;;;;;4908498;29;20374;-39
2022/11/02 06:16:10;;;;;;;100.50;35.30;;;;;;;;;;4917939;29;20220;-39
2022/11/02 06:18:37;;;;;;;94.47;33.33;;;;;;;;;;4917791;29;20657;-39
2022/11/02 06:21:05;;;;;;;97.72;33.60;;;;;;;;;;4917960;29;20229;-40
2022/11/02 06:23:32;;;;;;;90.57;31.40;;;;;;;;;;4917583;29;20232;-39
2022/11/02 06:26:00;;;;;;;97.43;32.78;;;;;;;;;;4901502;29;20232;-40
2022/11/02 06:28:27;;;;;;;96.15;32.67;;;;;;;;;;4917939;29;20263;-40
2022/11/02 06:30:55;;;;;;;97.93;33.63;;;;;;;;;;4901299;29;20240;-40
2022/11/02 06:33:22;;;;;;;90.03;33.28;;;;;;;;;;4917916;29;20237;-40
2022/11/02 06:35:51;;;;;;;95.13;33.90;;;;;;;;;;4917613;29;20224;-39
2022/11/02 06:38:18;;;;;;;97.65;32.53;;;;;;;;;;4917411;29;20695;-40
2022/11/02 06:41:05;;;;;;;101.05;33.55;;;;;;;;;;4905109;29;20231;-39
2022/11/02 06:43:36;;;;;;;96.57;32.58;;;;;;;;;;4890219;29;20240;-39
2022/11/02 06:46:04;;;;;;;108.57;34.33;;;;;;;;;;4921716;29;20564;-39
2022/11/02 06:48:32;;;;;;;109.95;35.58;;;;;;;;;;4905290;29;20238;-41
2022/11/02 06:51:02;;;;;;;94.78;35.28;;;;;;;;;;4921653;29;20228;-39
2022/11/02 06:53:29;;;;;;;107.68;36.20;;;;;;;;;;4904628;29;20229;-38
2022/11/02 06:55:57;;;;;;;95.57;33.55;;;;;;;;;;4904930;29;20301;-39
2022/11/02 06:58:25;;;;;;;101.13;34.08;;;;;;;;;;4921178;29;20253;-39
2022/11/02 07:00:57;;;;;;;96.13;33.38;;;;;;;;;;4921541;29;20374;-40
2022/11/02 07:03:24;;;;;;;101.45;33.25;;;;;;;;;;4921462;29;20239;-39
2022/11/02 07:05:51;;;;;;;99.88;33.50;;;;;;;;;;4921136;29;20735;-43
2022/11/02 07:08:19;;;;;;;100.85;32.42;;;;;;;;;;4920926;29;20221;-39
2022/11/02 07:10:46;;;;;;;108.10;32.72;;;;;;;;;;4920825;29;20300;-39
2022/11/02 07:13:14;;;;;;;112.03;36.08;;;;;;;;;;4921171;29;20248;-40
2022/11/02 07:15:41;;;;;;;107.63;34.80;;;;;;;;;;4921531;29;20237;-42
2022/11/02 07:18:08;;;;;;;125.35;36.78;;;;;;;;;;4920142;29;20267;-39
2022/11/02 07:20:35;;;;;;;132.38;37.25;;;;;;;;;;4920021;29;20237;-39
2022/11/02 07:23:03;;;;;;;113.22;33.80;;;;;;;;;;4921179;29;20539;-39
2022/11/02 07:25:32;;;;;;;118.55;36.15;;;;;;;;;;4920466;29;20228;-39
2022/11/02 07:28:00;;;;;;;118.05;37.35;;;;;;;;;;4920993;29;20699;-39
2022/11/02 07:30:28;;;;;;;112.45;37.65;;;;;;;;;;4920498;29;20231;-39
2022/11/02 07:32:56;;;;;;;101.93;35.50;;;;;;;;;;4921039;29;20225;-39
2022/11/02 07:35:24;;;;;;;108.68;36.70;;;;;;;;;;4920157;29;20794;-39
2022/11/02 07:37:58;;;;;;;108.63;36.20;;;;;;;;;;4920825;29;20579;-39
2022/11/02 07:40:26;;;;;;;116.43;40.75;;;;;;;;;;4920586;29;20695;-39
2022/11/02 07:42:54;;;;;;;108.13;35.72;;;;;;;;;;4920847;29;20229;-39
2022/11/02 07:45:30;;;;;;;98.07;33.42;;;;;;;;;;4903718;29;21034;-40
2022/11/02 07:47:58;;;;;;;105.82;35.25;;;;;;;;;;4920522;29;20578;-39
2022/11/02 07:50:25;;;;;;;106.30;36.30;;;;;;;;;;4920166;29;20312;-39
2022/11/02 07:52:55;;;;;;;100.50;35.42;;;;;;;;;;4920698;29;20652;-38
2022/11/02 07:55:25;;;;;;;95.05;33.08;;;;;;;;;;4920184;29;20292;-39
2022/11/02 07:57:56;;;;;;;87.07;33.45;;;;;;;;;;4904088;29;20220;-39
2022/11/02 08:00:24;;;;;;;93.40;33.15;;;;;;;;;;4920089;29;20538;-39
2022/11/02 08:02:58;;;;;;;89.90;33.70;;;;;;;;;;4920158;29;20243;-39
2022/11/02 08:05:27;;;;;;;94.85;33.55;;;;;;;;;;4919853;29;20251;-39
2022/11/02 08:07:58;;;;;;;103.90;33.20;;;;;;;;;;4920384;29;20683;-39
2022/11/02 08:10:26;;;;;;;96.03;34.85;;;;;;;;;;4919893;29;20593;-39
2022/11/02 08:12:53;;;;;;;102.57;34.47;;;;;;;;;;4919751;29;20268;-39
2022/11/02 08:15:20;;;;;;;105.50;35.00;;;;;;;;;;4920020;29;20227;-39
2022/11/02 08:17:58;;;;;;;100.32;34.03;;;;;;;;;;4919752;29;20608;-40
2022/11/02 08:20:25;;;;;;;114.38;35.95;;;;;;;;;;4919781;29;20252;-39
2022/11/02 08:22:52;;;;;;;115.43;37.30;;;;;;;;;;4920068;29;20296;-40
2022/11/02 08:25:19;;;;;;;109.03;36.30;;;;;;;;;;4919662;29;20558;-39
2022/11/02 08:27:46;;;;;;;122.20;35.53;;;;;;;;;;4920535;29;20209;-39
2022/11/02 08:30:13;;;;;;;124.82;37.10;;;;;;;;;;4920594;29;20209;-39
2022/11/02 08:32:41;;;;;;;125.03;35.85;;;;;;;;;;4920353;29;20627;-39
2022/11/02 08:35:08;;;;;;;125.22;39.63;;;;;;;;;;4920574;29;20651;-40
2022/11/02 08:37:35;;;;;;;129.35;39.03;;;;;;;;;;4920273;29;20276;-39
2022/11/02 08:40:02;;;;;;;126.82;38.55;;;;;;;;;;4872522;29;20225;-39
2022/11/02 08:42:29;;;;;;;128.85;35.88;;;;;;;;;;4920071;29;20267;-39
2022/11/02 08:44:56;;;;;;;124.32;34.28;;;;;;;;;;4920305;29;20273;-40
2022/11/02 08:47:23;;;;;;;79.72;27.88;;;;;;;;;;4920902;29;20201;-39
2022/11/02 08:49:50;;;;;;;80.85;28.30;;;;;;;;;;4919974;29;20636;-39
2022/11/02 08:52:17;;;;;;;88.80;31.13;;;;;;;;;;4920178;29;20212;-39
2022/11/02 08:54:44;;;;;;;95.53;30.48;;;;;;;;;;4920218;29;20228;-40
2022/11/02 08:57:11;;;;;;;100.40;31.63;;;;;;;;;;4919992;29;20212;-38
2022/11/02 08:59:38;;;;;;;92.78;31.65;;;;;;;;;;4919684;29;20562;-39
2022/11/02 09:02:07;;;;;;;90.35;31.05;;;;;;;;;;4919749;29;20271;-39
2022/11/02 09:04:34;;;;;;;79.07;28.08;;;;;;;;;;4903245;29;20662;-39
2022/11/02 09:07:01;;;;;;;82.18;29.02;;;;;;;;;;4919927;29;20213;-39
2022/11/02 09:09:28;;;;;;;70.97;27.35;;;;;;;;;;4919959;29;20197;-38
2022/11/02 09:11:55;;;;;;;70.55;27.13;;;;;;;;;;4919786;29;20204;-39
2022/11/02 09:14:22;;;;;;;65.32;25.17;;;;;;;;;;4919885;29;20244;-39
2022/11/02 09:16:49;;;;;;;55.90;23.75;;;;;;;;;;4919847;29;20201;-39
2022/11/02 09:19:16;;;;;;;58.80;25.17;;;;;;;;;;4903139;29;20528;-40
2022/11/02 09:21:43;;;;;;;55.90;24.27;;;;;;;;;;4919687;29;20205;-39
2022/11/02 09:24:10;;;;;;;67.72;27.30;;;;;;;;;;4919356;29;20644;-39
2022/11/02 09:26:37;;;;;;;68.30;27.38;;;;;;;;;;4919263;29;20223;-39
2022/11/02 09:29:04;;;;;;;73.70;29.45;;;;;;;;;;4919718;29;20211;-40
2022/11/02 09:31:31;;;;;;;80.32;29.73;;;;;;;;;;4919652;29;20208;-39
2022/11/02 09:33:58;;;;;;;74.38;29.90;;;;;;;;;;4919310;29;20216;-40
2022/11/02 09:36:26;;;;;;;94.13;34.30;;;;;;;;;;4919327;29;20205;-40
2022/11/02 09:38:52;;;;;;;99.78;36.08;;;;;;;;;;4919337;29;20201;-39
2022/11/02 09:41:33;;;;;;;94.55;36.35;;;;;;;;;;4919044;29;20227;-39
2022/11/02 09:44:08;;;;;;;105.05;39.40;;;;;;;;;;4919125;29;20596;-39
2022/11/02 09:46:40;;;;;;;97.93;39.58;;;;;;;;;;4919648;29;20204;-42
2022/11/02 09:49:19;;;;;;;107.78;42.13;;;;;;;;;;4903000;29;20623;-39
2022/11/02 09:51:46;;;;;;;112.15;43.88;;;;;;;;;;4902597;29;20212;-39
2022/11/02 09:54:34;;;;;;;125.78;45.75;;;;;;;;;;4919173;29;20589;-39
2022/11/02 09:57:15;;;;;;;118.28;45.88;;;;;;;;;;4902717;29;20212;-39
2022/11/02 09:59:42;;;;;;;118.13;45.70;;;;;;;;;;4918989;29;20212;-40
2022/11/02 10:02:29;;;;;;;116.07;45.97;;;;;;;;;;4902369;29;20219;-39
2022/11/02 10:05:13;;;;;;;114.10;46.28;;;;;;;;;;4918870;29;20699;-39
2022/11/02 10:08:08;;;;;;;113.63;44.28;;;;;;;;;;4918900;29;20200;-40
2022/11/02 10:10:40;;;;;;;124.93;44.88;;;;;;;;;;4919392;29;20208;-42
2022/11/02 10:13:36;;;;;;;117.95;46.65;;;;;;;;;;4901432;29;20240;-40
2022/11/02 10:16:05;;;;;;;114.95;45.95;;;;;;;;;;4918834;29;20213;-39
2022/11/02 10:18:32;;;;;;;113.70;44.15;;;;;;;;;;4902374;29;20237;-39
2022/11/02 10:21:04;;;;;;;105.70;44.60;;;;;;;;;;4902326;29;20236;-40
2022/11/02 10:23:49;;;;;;;89.88;37.60;;;;;;;;;;4902239;29;20209;-39
2022/11/02 10:26:32;;;;;;;85.22;36.03;;;;;;;;;;4919077;29;20177;-39
2022/11/02 10:29:18;;;;;;;86.35;35.50;;;;;;;;;;4902057;29;20669;-40
2022/11/02 10:31:45;;;;;;;82.57;35.42;;;;;;;;;;4902172;29;20208;-39
2022/11/02 10:34:22;;;;;;;66.90;29.05;;;;;;;;;;4918667;29;20197;-42
2022/11/02 10:37:08;;;;;;;70.82;29.95;;;;;;;;;;4918917;29;20280;-39
2022/11/02 10:39:41;;;;;;;63.40;29.27;;;;;;;;;;4918295;29;20232;-43
2022/11/02 10:42:20;;;;;;;62.22;28.75;;;;;;;;;;4918608;29;20220;-38
2022/11/02 10:44:58;;;;;;;63.88;29.25;;;;;;;;;;4933973;29;20196;-45
2022/11/02 10:47:51;;;;;;;67.10;29.77;;;;;;;;;;4937142;29;20214;-43
2022/11/02 10:50:31;;;;;;;69.45;30.90;;;;;;;;;;4930489;29;20661;-43
2022/11/02 10:53:01;;;;;;;73.80;31.52;;;;;;;;;;4936801;29;20199;-43
2022/11/02 10:56:40;;;;;;;74.10;32.40;;;;;;;;;;4923747;29;20569;-44
2022/11/02 10:59:22;;;;;;;80.30;34.60;;;;;;;;;;4879157;29;20214;-44
2022/11/02 11:01:55;;;;;;;77.78;33.30;;;;;;;;;;4879023;29;20206;-44
2022/11/02 11:04:27;;;;;;;85.63;36.10;;;;;;;;;;4878829;29;20191;-44
2022/11/02 11:06:58;;;;;;;82.55;36.25;;;;;;;;;;4878951;29;20650;-45
2022/11/02 11:09:29;;;;;;;91.10;36.65;;;;;;;;;;4878971;29;20214;-45
2022/11/02 11:11:59;;;;;;;85.82;38.10;;;;;;;;;;4879006;29;20194;-44
2022/11/02 11:14:31;;;;;;;86.40;38.47;;;;;;;;;;4878545;29;20245;-44
2022/11/02 11:17:39;;;;;;;81.13;36.53;;;;;;;;;;4879028;29;20206;-44
2022/11/02 11:20:30;;;;;;;71.07;34.53;;;;;;;;;;4878846;29;20229;-43
2022/11/02 11:23:21;;;;;;;73.60;35.58;;;;;;;;;;4863306;29;20226;-45
2022/11/02 11:26:00;;;;;;;67.43;32.13;;;;;;;;;;4874439;29;20654;-43
2022/11/02 11:28:39;;;;;;;70.82;33.20;;;;;;;;;;4882414;29;20277;-46
2022/11/02 11:31:13;;;;;;;72.65;34.53;;;;;;;;;;4882135;29;20229;-46
2022/11/02 11:33:46;;;;;;;74.07;35.85;;;;;;;;;;4870223;29;20202;-43
2022/11/02 11:36:31;;;;;;;66.32;32.42;;;;;;;;;;4924222;29;20248;-44
2022/11/02 11:39:01;;;;;;;66.38;31.50;;;;;;;;;;4940366;29;20574;-43
2022/11/02 11:41:30;;;;;;;65.35;32.35;;;;;;;;;;4940082;29;20227;-40
2022/11/02 11:43:57;;;;;;;63.17;32.17;;;;;;;;;;4922526;29;20268;-43
2022/11/02 11:46:38;;;;;;;66.40;31.30;;;;;;;;;;4904714;29;20209;-42
2022/11/02 11:49:18;;;;;;;62.47;31.42;;;;;;;;;;4921035;29;20696;-39
2022/11/02 11:51:48;;;;;;;60.25;29.92;;;;;;;;;;4889445;29;20216;-39
2022/11/02 11:54:30;;;;;;;63.72;30.33;;;;;;;;;;4904783;29;20209;-39
2022/11/02 11:56:58;;;;;;;53.35;27.42;;;;;;;;;;4904643;29;20692;-41
2022/11/02 11:59:28;;;;;;;55.20;27.23;;;;;;;;;;4904604;29;20267;-39
2022/11/02 12:01:58;;;;;;;54.40;26.20;;;;;;;;;;4920831;29;20308;-40
2022/11/02 12:04:31;;;;;;;56.38;26.25;;;;;;;;;;4921328;29;20193;-41
2022/11/02 12:07:18;;;;;;;53.47;26.50;;;;;;;;;;4920744;29;20208;-41
2022/11/02 12:10:04;;;;;;;56.20;26.00;;;;;;;;;;4904721;29;20220;-40
2022/11/02 12:13:08;;;;;;;51.28;26.40;;;;;;;;;;4920790;29;20223;-40
2022/11/02 12:15:39;;;;;;;51.72;26.52;;;;;;;;;;4919515;29;20212;-40
2022/11/02 12:18:24;;;;;;;47.83;25.48;;;;;;;;;;4919749;29;20260;-39
2022/11/02 12:21:27;;;;;;;58.65;28.52;;;;;;;;;;4919271;29;20288;-40
2022/11/02 12:24:04;;;;;;;61.38;27.95;;;;;;;;;;4917575;29;20204;-40
2022/11/02 12:26:40;;;;;;;58.58;29.13;;;;;;;;;;4901843;29;20219;-39
2022/11/02 12:29:30;;;;;;;52.45;26.98;;;;;;;;;;4917711;29;20280;-39
2022/11/02 12:32:21;;;;;;;54.60;28.65;;;;;;;;;;4903465;29;20223;-40
2022/11/02 12:35:25;;;;;;;56.85;29.73;;;;;;;;;;4917869;29;20193;-42
2022/11/02 12:38:37;;;;;;;59.08;28.15;;;;;;;;;;4917496;29;20204;-43
2022/11/02 12:41:31;;;;;;;54.75;27.13;;;;;;;;;;4850977;29;20287;-41
2022/11/02 12:44:08;;;;;;;54.50;25.48;;;;;;;;;;4849741;29;20705;-42
2022/11/02 12:46:38;;;;;;;49.90;25.23;;;;;;;;;;4850857;29;20213;-42
2022/11/02 12:49:37;;;;;;;53.13;26.77;;;;;;;;;;4849188;29;20209;-40
2022/11/02 12:52:21;;;;;;;44.38;23.52;;;;;;;;;;4850912;29;20252;-41
2022/11/02 12:54:55;;;;;;;52.20;24.55;;;;;;;;;;4848492;29;20195;-42
2022/11/02 12:57:25;;;;;;;46.65;23.70;;;;;;;;;;4837973;29;20202;-43
2022/11/02 12:59:55;;;;;;;52.72;24.67;;;;;;;;;;4851995;29;20203;-39
2022/11/02 13:03:06;;;;;;;48.53;23.55;;;;;;;;;;4851114;29;21663;-45
2022/11/02 13:05:38;;;;;;;39.72;20.65;;;;;;;;;;4807194;29;20195;-40
2022/11/02 13:08:20;;;;;;;38.35;21.50;;;;;;;;;;4853105;29;20187;-39
2022/11/02 13:10:54;;;;;;;42.60;24.80;;;;;;;;;;4835456;29;20207;-44
2022/11/02 13:13:31;;;;;;;40.42;21.05;;;;;;;;;;4852517;29;20291;-40
2022/11/02 13:16:00;;;;;;;41.70;22.42;;;;;;;;;;4832169;29;20203;-40
2022/11/02 13:18:43;;;;;;;37.70;21.85;;;;;;;;;;4891921;29;20628;-40
2022/11/02 13:21:12;;;;;;;38.33;21.33;;;;;;;;;;4918275;29;20236;-39
2022/11/02 13:23:44;;;;;;;39.65;22.42;;;;;;;;;;4902575;29;20247;-44
2022/11/02 13:26:25;;;;;;;42.28;21.77;;;;;;;;;;4917599;29;20185;-44
2022/11/02 13:29:13;;;;;;;41.25;21.38;;;;;;;;;;4902959;29;20188;-44
2022/11/02 13:31:44;;;;;;;39.40;21.45;;;;;;;;;;4918214;29;20347;-39
2022/11/02 13:34:14;;;;;;;35.75;21.50;;;;;;;;;;4902135;29;20224;-43
2022/11/02 13:36:42;;;;;;;39.45;22.15;;;;;;;;;;4900740;29;20291;-40
2022/11/02 13:39:24;;;;;;;42.42;23.02;;;;;;;;;;4898542;29;20280;-43
2022/11/02 13:42:07;;;;;;;39.92;22.45;;;;;;;;;;4900940;29;20236;-44
2022/11/02 13:45:12;;;;;;;44.35;24.23;;;;;;;;;;4915936;29;20221;-41
2022/11/02 13:47:54;;;;;;;44.60;23.00;;;;;;;;;;4916998;29;20223;-41
2022/11/02 13:50:22;;;;;;;43.83;24.02;;;;;;;;;;4901151;29;20236;-41
2022/11/02 13:52:58;;;;;;;36.70;21.98;;;;;;;;;;4917290;29;20292;-41
2022/11/02 13:55:37;;;;;;;39.42;22.77;;;;;;;;;;4915469;29;20220;-42
2022/11/02 13:58:21;;;;;;;38.33;22.30;;;;;;;;;;4915654;29;20284;-41
2022/11/02 14:00:48;;;;;;;38.25;22.75;;;;;;;;;;4915340;29;20243;-39
2022/11/02 14:03:19;;;;;;;38.42;22.98;;;;;;;;;;4901348;29;20724;-41
2022/11/02 14:05:57;;;;;;;36.38;22.45;;;;;;;;;;4915009;29;20248;-41
2022/11/02 14:08:35;;;;;;;34.28;23.58;;;;;;;;;;4916694;29;20553;-43
2022/11/02 14:11:08;;;;;;;45.47;26.65;;;;;;;;;;4900830;29;20303;-41
2022/11/02 14:13:53;;;;;;;43.13;27.17;;;;;;;;;;4916521;29;20303;-40
2022/11/02 14:16:42;;;;;;;51.65;31.30;;;;;;;;;;4914096;29;20565;-42
2022/11/02 14:19:15;;;;;;;45.50;28.85;;;;;;;;;;4920966;29;20225;-42
2022/11/02 14:21:52;;;;;;;40.45;22.92;;;;;;;;;;4919168;29;20331;-43
2022/11/02 14:24:31;;;;;;;45.33;23.17;;;;;;;;;;4914633;29;20224;-41
2022/11/02 14:27:11;;;;;;;42.42;23.60;;;;;;;;;;4915167;29;20315;-41
2022/11/02 14:29:43;;;;;;;37.47;23.60;;;;;;;;;;4915264;29;20303;-43
2022/11/02 14:32:19;;;;;;;39.97;23.45;;;;;;;;;;4914700;29;20288;-41
2022/11/02 14:35:14;;;;;;;35.25;22.15;;;;;;;;;;4900528;29;20227;-41
2022/11/02 14:38:23;;;;;;;45.05;23.45;;;;;;;;;;4915640;29;20259;-41
2022/11/02 14:40:55;;;;;;;40.70;22.67;;;;;;;;;;4840393;29;20273;-42
2022/11/02 14:43:59;;;;;;;41.67;23.67;;;;;;;;;;4841157;29;20655;-42
2022/11/02 14:46:49;;;;;;;39.63;23.35;;;;;;;;;;4840922;29;20264;-43
2022/11/02 14:49:20;;;;;;;48.22;28.63;;;;;;;;;;4826090;29;20239;-41
2022/11/02 14:52:06;;;;;;;42.42;26.88;;;;;;;;;;4821232;29;20231;-42
2022/11/02 14:54:49;;;;;;;55.75;27.75;;;;;;;;;;4825621;29;20238;-43
2022/11/02 14:57:16;;;;;;;46.65;27.27;;;;;;;;;;4838906;29;20238;-43
2022/11/02 14:59:48;;;;;;;50.88;28.75;;;;;;;;;;4841438;29;20223;-41
2022/11/02 15:02:18;;;;;;;63.60;33.72;;;;;;;;;;4829014;29;20231;-43